createdAt,value
2018-01-03T14:17:26.570Z,77.40
2018-01-03T14:19:54.116Z,77.40
2018-01-03T14:22:21.713Z,77.70
2018-01-03T14:24:49.406Z,78.80
2018-01-03T14:29:59.085Z,81.10
2018-01-03T16:39:12.215Z,85.00
2018-01-03T16:41:39.893Z,85.20
2018-01-03T16:44:07.460Z,84.20
2018-01-03T16:46:35.053Z,84.00
2018-01-03T16:49:02.617Z,83.00
2018-01-03T16:51:35.870Z,82.90
2018-01-03T16:54:03.500Z,82.60
2018-01-03T16:56:31.065Z,82.20
2018-01-03T16:58:58.690Z,82.00
2018-01-03T17:01:29.148Z,81.40
2018-01-03T17:03:59.851Z,81.10
2018-01-03T17:06:28.308Z,80.60
2018-01-03T17:08:55.872Z,80.60
2018-01-03T17:11:23.462Z,80.50
2018-01-03T17:13:51.298Z,80.00
2018-01-03T17:16:19.083Z,78.70
2018-01-03T17:18:46.749Z,78.10
2018-01-03T17:21:14.539Z,78.50
2018-01-03T17:23:42.086Z,77.80
2018-01-03T17:26:09.729Z,77.90
2018-01-03T17:28:37.301Z,77.70
2018-01-03T17:31:06.134Z,77.50
2018-01-03T17:33:33.687Z,78.20
2018-01-03T17:36:01.267Z,78.00
2018-01-03T17:38:29.811Z,78.00
2018-01-03T17:40:57.379Z,78.00
2018-01-03T17:43:25.255Z,77.90
2018-01-03T17:45:52.934Z,78.90
2018-01-03T17:48:21.306Z,78.70
2018-01-03T17:50:48.875Z,78.60
2018-01-03T17:53:17.206Z,80.40
2018-01-03T17:55:44.790Z,80.20
2018-01-03T17:58:12.359Z,79.80
2018-01-03T18:00:39.922Z,81.40
2018-01-03T18:03:07.530Z,82.10
2018-01-03T18:05:35.126Z,82.80
2018-01-03T18:08:03.355Z,84.00
2018-01-03T18:10:30.940Z,84.40
2018-01-03T18:12:58.552Z,84.40
2018-01-03T18:15:26.106Z,85.00
2018-01-03T18:17:53.690Z,82.80
2018-01-03T18:20:21.292Z,81.90
2018-01-03T18:22:49.246Z,83.50
2018-01-03T18:25:16.890Z,85.40
2018-01-03T18:27:44.524Z,85.00
2018-01-03T18:30:12.995Z,85.20
2018-01-03T18:32:40.635Z,85.20
2018-01-03T18:35:08.215Z,85.00
2018-01-03T18:37:38.155Z,85.60
2018-01-03T18:40:36.799Z,85.50
2018-01-03T18:43:04.368Z,85.80
2018-01-03T18:45:31.946Z,85.90
2018-01-03T18:48:00.274Z,85.60
2018-01-03T18:50:27.869Z,85.60
2018-01-03T18:52:55.461Z,85.20
2018-01-03T18:55:23.065Z,85.60
2018-01-03T18:57:50.900Z,85.40
2018-01-03T19:00:18.459Z,83.20
2018-01-03T19:02:46.029Z,83.50
2018-01-03T19:05:13.620Z,82.70
2018-01-03T19:07:41.189Z,83.70
2018-01-03T19:10:08.797Z,84.20
2018-01-03T19:12:37.128Z,84.60
2018-01-03T19:15:04.689Z,84.60
2018-01-03T19:17:32.274Z,84.50
2018-01-03T19:19:59.859Z,84.80
2018-01-03T19:22:28.277Z,84.90
2018-01-03T19:24:55.887Z,84.70
2018-01-03T19:27:23.483Z,84.50
2018-01-03T19:29:51.782Z,83.50
2018-01-03T19:32:19.349Z,83.10
2018-01-03T19:34:46.951Z,83.10
2018-01-03T19:37:15.318Z,80.90
2018-01-03T19:39:42.882Z,80.90
2018-01-03T19:42:11.276Z,80.00
2018-01-03T19:44:38.898Z,79.80
2018-01-03T19:47:06.489Z,79.70
2018-01-03T19:49:34.146Z,79.00
2018-01-03T19:52:01.736Z,78.60
2018-01-03T19:54:29.321Z,78.50
2018-01-03T19:56:57.799Z,78.00
2018-01-03T19:59:26.182Z,78.60
2018-01-03T20:01:54.636Z,77.70
2018-01-03T20:04:22.332Z,77.70
2018-01-03T20:06:50.202Z,77.90
2018-01-03T20:09:17.865Z,78.30
2018-01-03T20:11:45.461Z,78.10
2018-01-03T20:14:13.516Z,78.50
2018-01-03T20:16:52.220Z,79.00
2018-01-03T20:19:19.791Z,78.80
2018-01-03T20:21:47.381Z,80.40
2018-01-03T20:24:15.068Z,82.40
2018-01-03T20:26:42.762Z,83.60
2018-01-03T20:29:21.838Z,85.30
2018-01-03T20:31:49.913Z,85.30
2018-01-03T20:34:17.608Z,85.30
2018-01-03T20:36:45.468Z,85.60
2018-01-03T20:39:13.181Z,85.90
2018-01-03T20:41:40.820Z,85.90
2018-01-03T20:44:08.514Z,85.10
2018-01-03T20:46:36.164Z,85.50
2018-01-03T20:49:04.099Z,85.90
2018-01-03T20:51:32.333Z,86.10
2018-01-03T20:54:00.235Z,86.20
2018-01-03T20:56:30.360Z,84.90
2018-01-03T20:59:09.846Z,85.20
2018-01-03T21:01:37.582Z,84.60
2018-01-03T21:04:05.350Z,84.40
2018-01-03T21:06:33.188Z,84.50
2018-01-03T21:09:01.783Z,84.30
2018-01-03T21:11:29.755Z,84.30
2018-01-03T21:13:57.582Z,84.20
2018-01-03T21:16:25.442Z,83.90
2018-01-03T21:18:53.189Z,82.70
2018-01-03T21:21:20.808Z,83.10
2018-01-03T21:23:49.311Z,82.40
2018-01-03T21:26:17.051Z,82.40
2018-01-03T21:28:45.403Z,82.40
2018-01-03T21:31:13.193Z,82.40
2018-01-03T21:33:40.774Z,80.80
2018-01-03T21:36:08.433Z,80.50
2018-01-03T21:38:36.124Z,79.00
2018-01-03T21:41:03.688Z,79.90
2018-01-03T21:43:32.158Z,78.70
2018-01-03T21:48:33.833Z,79.10
2018-01-03T21:51:01.477Z,79.20
2018-01-03T21:53:29.135Z,79.70
2018-01-03T21:55:56.940Z,79.00
2018-01-03T21:58:24.532Z,79.10
2018-01-03T22:00:52.770Z,78.40
2018-01-03T22:03:20.371Z,77.90
2018-01-03T22:05:48.527Z,78.50
2018-01-03T22:08:16.352Z,78.10
2018-01-03T22:10:44.055Z,78.10
2018-01-03T22:13:11.865Z,77.50
2018-01-03T22:15:39.508Z,78.10
2018-01-03T22:18:07.200Z,78.10
2018-01-03T22:20:34.880Z,77.60
2018-01-03T22:23:02.497Z,77.60
2018-01-03T22:25:30.190Z,76.90
2018-01-03T22:27:57.773Z,76.90
2018-01-03T22:30:25.380Z,77.20
2018-01-03T22:32:53.905Z,77.20
2018-01-03T22:35:21.652Z,77.00
2018-01-03T22:37:49.215Z,77.20
2018-01-03T22:40:16.796Z,76.80
2018-01-03T22:42:44.429Z,76.70
2018-01-03T22:45:12.215Z,76.80
2018-01-03T22:47:40.046Z,76.80
2018-01-03T22:50:08.373Z,76.80
2018-01-03T22:52:35.947Z,76.80
2018-01-03T22:55:03.589Z,76.40
2018-01-03T22:57:31.202Z,76.10
2018-01-03T23:00:00.087Z,76.40
2018-01-03T23:02:27.686Z,76.40
2018-01-03T23:04:55.674Z,76.10
2018-01-03T23:07:23.599Z,76.60
2018-01-03T23:09:52.678Z,76.20
2018-01-03T23:12:20.342Z,76.20
2018-01-03T23:14:47.924Z,75.80
2018-01-03T23:17:16.262Z,75.80
2018-01-03T23:19:45.129Z,75.80
2018-01-03T23:22:12.745Z,75.40
2018-01-03T23:24:41.105Z,75.40
2018-01-03T23:27:08.767Z,74.80
2018-01-03T23:29:37.146Z,75.10
2018-01-03T23:32:04.773Z,75.10
2018-01-03T23:34:32.347Z,75.10
2018-01-03T23:36:59.953Z,74.00
2018-01-03T23:39:28.343Z,73.50
2018-01-03T23:41:56.138Z,74.00
2018-01-03T23:44:23.710Z,73.60
2018-01-03T23:46:51.365Z,73.30
2018-01-03T23:49:18.934Z,74.30
2018-01-03T23:51:46.519Z,73.80
2018-01-03T23:54:14.078Z,74.00
2018-01-03T23:56:41.642Z,73.70
2018-01-03T23:59:09.232Z,73.40
